Terminal Aerodrome Forecast
Issued by NWS

Home | Current Version | Previous Version | Graphics & Text | Print | Product List | Glossary On
Versions: 1 2 3 4 5 6 7 8 9 10 11 12 13 14 15 16 17 18 19 20 21 22 23 24 25 26 27 28 29 30 31 32 33
000
FTUS43 KDLH 231100 RRA
TAFHIB
TAF
KHIB 231144Z 2312/2412 10004KT 4SM BR OVC002
     FM231600 10005KT P6SM OVC008
     FM231700 10006KT P6SM SCT012 BKN035
     FM232100 11010KT P6SM SCT035
     FM240100 10006KT P6SM BKN025
     FM240400 11008KT 5SM BR BKN012
     FM240800 12008KT 2SM BR OVC008=

USA.gov is the U.S. government's official web portal to all federal, state and local government web resources and services.